createdAt,value
2018-12-08T00:00:03.905Z,93.97
2018-12-08T00:00:35.021Z,95.55
2018-12-08T00:01:06.132Z,91.30
2018-12-08T00:01:37.236Z,87.88
2018-12-08T00:02:08.366Z,87.97
2018-12-08T00:02:39.497Z,89.45
2018-12-08T00:03:10.625Z,86.90
2018-12-08T00:03:41.781Z,85.00
2018-12-08T00:04:12.896Z,83.80
2018-12-08T00:04:44.001Z,87.57
2018-12-08T00:05:15.120Z,81.70
2018-12-08T00:05:46.249Z,82.45
2018-12-08T00:06:18.228Z,81.53
2018-12-08T00:06:49.354Z,80.28
2018-12-08T00:07:20.460Z,83.20
2018-12-08T00:07:51.586Z,82.40
2018-12-08T00:08:22.700Z,81.00
2018-12-08T00:08:53.861Z,83.05
2018-12-08T00:09:25.027Z,80.90
2018-12-08T00:09:56.154Z,83.47
2018-12-08T00:10:27.287Z,84.62
2018-12-08T00:10:58.396Z,84.20
2018-12-08T00:11:30.574Z,83.27
2018-12-08T00:12:01.694Z,82.60
2018-12-08T00:12:32.816Z,82.40
2018-12-08T00:13:03.934Z,80.67
2018-12-08T00:13:35.044Z,84.35
2018-12-08T00:14:06.193Z,81.22
2018-12-08T00:14:37.354Z,85.87
2018-12-08T00:15:08.464Z,85.45
2018-12-08T00:15:39.567Z,83.47
2018-12-08T00:16:10.685Z,84.47
2018-12-08T00:16:41.799Z,86.15
2018-12-08T00:17:12.913Z,86.92
2018-12-08T00:17:44.025Z,88.30
2018-12-08T00:18:15.145Z,87.22
2018-12-08T00:18:46.260Z,90.42
2018-12-08T00:19:17.375Z,87.57
2018-12-08T00:19:48.533Z,84.67
2018-12-08T00:20:19.636Z,88.55
2018-12-08T00:20:50.788Z,88.87
2018-12-08T00:21:21.912Z,86.00
2018-12-08T00:21:53.021Z,87.82
2018-12-08T00:22:24.128Z,89.17
2018-12-08T00:22:55.254Z,87.82
2018-12-08T00:23:26.377Z,86.67
2018-12-08T00:23:57.500Z,88.22
2018-12-08T00:24:28.628Z,85.53
2018-12-08T00:24:59.730Z,88.87
2018-12-08T00:25:30.884Z,86.30
2018-12-08T00:26:02.033Z,86.95
2018-12-08T00:26:33.161Z,86.15
2018-12-08T00:27:04.278Z,85.32
2018-12-08T00:27:35.392Z,87.27
2018-12-08T00:28:06.674Z,85.77
2018-12-08T00:28:37.873Z,84.13
2018-12-08T00:29:08.984Z,83.78
2018-12-08T00:29:40.109Z,82.33
2018-12-08T00:30:11.270Z,75.22
2018-12-08T00:30:42.437Z,73.37
2018-12-08T00:31:13.560Z,77.32
2018-12-08T00:31:44.676Z,72.72
2018-12-08T00:32:15.789Z,72.53
2018-12-08T00:32:46.901Z,68.20
2018-12-08T00:33:18.017Z,70.75
2018-12-08T00:33:49.128Z,73.05
2018-12-08T00:34:20.243Z,71.02
2018-12-08T00:34:51.357Z,65.60
2018-12-08T00:35:22.468Z,65.65
2018-12-08T00:35:53.616Z,65.92
2018-12-08T00:36:24.725Z,73.25
2018-12-08T00:36:55.835Z,74.03
2018-12-08T00:37:26.945Z,73.80
2018-12-08T00:37:58.070Z,77.72
2018-12-08T00:38:29.185Z,72.85
2018-12-08T00:39:00.306Z,75.52
2018-12-08T00:39:31.416Z,74.40
2018-12-08T00:40:02.566Z,75.65
2018-12-08T00:40:33.679Z,72.70
2018-12-08T00:41:04.823Z,75.75
2018-12-08T00:41:35.930Z,75.87
2018-12-08T00:42:07.041Z,75.10
2018-12-08T00:42:38.153Z,75.85
2018-12-08T00:43:09.269Z,75.10
2018-12-08T00:43:40.386Z,71.57
2018-12-08T00:44:11.492Z,73.78
2018-12-08T00:44:42.602Z,74.07
2018-12-08T00:45:13.716Z,76.00
2018-12-08T00:45:44.827Z,71.92
2018-12-08T00:46:15.977Z,70.03
2018-12-08T00:46:47.094Z,70.32
2018-12-08T00:47:18.207Z,72.50
2018-12-08T00:47:49.354Z,71.95
2018-12-08T00:48:20.467Z,73.22
2018-12-08T00:48:51.580Z,75.50
2018-12-08T00:49:22.731Z,69.72
2018-12-08T00:49:53.857Z,74.77
2018-12-08T00:50:24.982Z,74.87
2018-12-08T00:50:56.088Z,75.40
2018-12-08T00:51:27.245Z,71.30
2018-12-08T00:51:58.369Z,71.15
2018-12-08T00:52:29.503Z,72.20
2018-12-08T00:53:01.548Z,70.42
2018-12-08T00:53:32.665Z,70.05
2018-12-08T00:54:03.788Z,68.10
2018-12-08T00:54:34.908Z,68.40
2018-12-08T00:55:06.034Z,70.15
2018-12-08T00:55:37.149Z,69.82
2018-12-08T00:56:08.262Z,67.92
2018-12-08T00:56:40.565Z,70.25
2018-12-08T00:57:11.674Z,69.05
2018-12-08T00:57:42.784Z,70.45
2018-12-08T00:58:13.929Z,68.83
2018-12-08T00:58:45.036Z,64.70
2018-12-08T00:59:16.160Z,63.90
2018-12-08T00:59:47.288Z,60.17
2018-12-08T01:00:18.424Z,62.75
2018-12-08T01:00:49.543Z,64.70
2018-12-08T01:01:20.654Z,61.42
2018-12-08T01:01:51.799Z,63.05
2018-12-08T01:02:22.926Z,63.63
2018-12-08T01:02:54.072Z,64.60
2018-12-08T01:03:25.524Z,66.60
2018-12-08T01:03:56.657Z,62.08
2018-12-08T01:04:27.806Z,62.90
2018-12-08T01:04:58.915Z,62.48
2018-12-08T01:05:30.025Z,60.48
2018-12-08T01:06:01.138Z,61.02
2018-12-08T01:06:32.245Z,65.12
2018-12-08T01:07:03.363Z,63.05
2018-12-08T01:07:34.484Z,62.38
2018-12-08T01:08:05.640Z,66.65
2018-12-08T01:08:36.761Z,64.85
2018-12-08T01:09:07.903Z,68.90
2018-12-08T01:09:39.033Z,64.15
2018-12-08T01:10:10.161Z,65.78
2018-12-08T01:10:41.268Z,66.57
2018-12-08T01:11:12.374Z,67.20
2018-12-08T01:11:43.488Z,66.62
2018-12-08T01:12:14.613Z,66.35
2018-12-08T01:12:45.730Z,71.12
2018-12-08T01:13:16.873Z,70.87
2018-12-08T01:13:47.984Z,69.80
2018-12-08T01:14:19.097Z,69.37
2018-12-08T01:14:50.214Z,68.22
2018-12-08T01:15:21.328Z,67.05
2018-12-08T01:15:52.443Z,66.05
2018-12-08T01:16:23.561Z,67.32
2018-12-08T01:16:54.682Z,68.78
2018-12-08T01:17:25.780Z,66.60
2018-12-08T01:17:57.925Z,64.92
2018-12-08T01:18:29.029Z,62.43
2018-12-08T01:19:00.189Z,63.80
2018-12-08T01:19:32.080Z,63.08
2018-12-08T01:20:03.218Z,58.73
2018-12-08T01:20:34.327Z,61.35
2018-12-08T01:21:05.433Z,61.25
2018-12-08T01:21:36.604Z,62.50
2018-12-08T01:22:07.717Z,64.12
2018-12-08T01:22:38.828Z,68.75
2018-12-08T01:23:09.947Z,71.33
2018-12-08T01:23:41.074Z,70.72
2018-12-08T01:24:12.183Z,72.08
2018-12-08T01:24:44.228Z,71.33
2018-12-08T01:25:15.543Z,73.90
2018-12-08T01:25:46.654Z,71.10
2018-12-08T01:26:17.785Z,72.72
2018-12-08T01:26:48.940Z,73.07
2018-12-08T01:27:20.066Z,73.90
2018-12-08T01:27:51.180Z,72.60
2018-12-08T01:28:22.304Z,77.10
2018-12-08T01:28:53.426Z,76.47
2018-12-08T01:29:24.577Z,76.10
2018-12-08T01:29:55.691Z,72.12
2018-12-08T01:30:26.825Z,72.82
2018-12-08T01:30:57.936Z,68.85
2018-12-08T01:31:29.049Z,69.45
2018-12-08T01:32:00.198Z,66.02
2018-12-08T01:32:31.309Z,63.85
2018-12-08T01:33:02.414Z,59.25
2018-12-08T01:33:33.518Z,59.23
2018-12-08T01:34:04.620Z,62.13
2018-12-08T01:34:35.735Z,57.98
2018-12-08T01:35:06.852Z,61.55
2018-12-08T01:35:37.965Z,60.63
2018-12-08T01:36:09.079Z,56.85
2018-12-08T01:36:40.192Z,56.05
2018-12-08T01:37:11.352Z,57.43
2018-12-08T01:37:42.456Z,58.28
2018-12-08T01:38:13.561Z,59.03
2018-12-08T01:38:44.703Z,59.95
2018-12-08T01:39:15.816Z,59.83
2018-12-08T01:39:46.919Z,59.88
2018-12-08T01:40:18.874Z,59.53
2018-12-08T01:40:50.006Z,58.83
2018-12-08T01:41:21.120Z,58.78
2018-12-08T01:41:52.229Z,59.50
2018-12-08T01:42:23.347Z,62.35
2018-12-08T01:42:54.474Z,62.00
2018-12-08T01:43:25.588Z,62.10
2018-12-08T01:43:56.723Z,62.05
2018-12-08T01:44:27.843Z,62.98
2018-12-08T01:44:58.952Z,65.40
2018-12-08T01:45:30.071Z,68.72
2018-12-08T01:46:01.183Z,75.15
2018-12-08T01:46:32.287Z,77.87
2018-12-08T01:47:03.401Z,77.62
2018-12-08T01:47:34.526Z,73.22
2018-12-08T01:48:05.644Z,77.53
2018-12-08T01:48:36.807Z,75.83
2018-12-08T01:49:07.914Z,79.72
2018-12-08T01:49:39.024Z,79.35
2018-12-08T01:50:10.131Z,73.52
2018-12-08T01:50:41.236Z,71.55
2018-12-08T01:51:12.393Z,75.97
2018-12-08T01:51:43.509Z,77.50
2018-12-08T01:52:14.616Z,80.40
2018-12-08T01:52:45.731Z,79.60
2018-12-08T01:53:16.851Z,79.25
2018-12-08T01:53:48.003Z,75.37
2018-12-08T01:54:19.116Z,80.10
2018-12-08T01:54:50.228Z,78.50
2018-12-08T01:55:21.340Z,78.97
2018-12-08T01:55:52.471Z,75.42
2018-12-08T01:56:23.584Z,82.02
2018-12-08T01:56:54.736Z,80.12
2018-12-08T01:57:25.849Z,77.65
2018-12-08T01:57:56.968Z,80.85
2018-12-08T01:58:28.104Z,78.42
2018-12-08T01:58:59.269Z,81.60
2018-12-08T01:59:30.393Z,77.72
2018-12-08T02:00:01.512Z,75.45
2018-12-08T02:00:32.647Z,79.65
2018-12-08T02:01:03.760Z,78.07
2018-12-08T02:01:34.912Z,77.87
2018-12-08T02:02:06.031Z,78.62
2018-12-08T02:02:37.149Z,77.90
2018-12-08T02:03:08.310Z,79.75
2018-12-08T02:03:39.420Z,79.85
2018-12-08T02:04:10.532Z,79.50
2018-12-08T02:04:41.649Z,81.37
2018-12-08T02:05:12.761Z,80.05
2018-12-08T02:05:43.878Z,80.45
2018-12-08T02:06:14.997Z,78.45
2018-12-08T02:06:46.123Z,78.20
2018-12-08T02:07:17.233Z,80.85
2018-12-08T02:07:48.345Z,78.02
2018-12-08T02:08:19.488Z,80.05
2018-12-08T02:08:50.606Z,82.40
2018-12-08T02:09:21.750Z,81.67
2018-12-08T02:09:52.864Z,82.88
2018-12-08T02:10:24.013Z,85.95
2018-12-08T02:10:55.119Z,85.05
2018-12-08T02:11:26.228Z,84.25
2018-12-08T02:11:57.350Z,84.28
2018-12-08T02:12:28.554Z,83.78
2018-12-08T02:12:59.712Z,83.55
2018-12-08T02:13:30.832Z,83.58
2018-12-08T02:14:02.000Z,85.80
2018-12-08T02:14:33.115Z,82.55
2018-12-08T02:15:04.236Z,82.65
2018-12-08T02:15:35.357Z,82.08
2018-12-08T02:16:06.492Z,84.00
2018-12-08T02:16:37.598Z,82.95
2018-12-08T02:17:08.708Z,83.42
2018-12-08T02:17:39.829Z,84.90
2018-12-08T02:18:10.980Z,84.52
2018-12-08T02:18:42.093Z,84.97
2018-12-08T02:19:13.205Z,87.78
2018-12-08T02:19:44.318Z,89.65
2018-12-08T02:20:15.467Z,87.10
2018-12-08T02:20:46.579Z,85.28
2018-12-08T02:21:17.684Z,86.80
2018-12-08T02:21:48.843Z,86.25
2018-12-08T02:22:19.962Z,84.92
2018-12-08T02:22:51.073Z,82.92
2018-12-08T02:23:22.182Z,87.42
2018-12-08T02:23:53.300Z,87.40
2018-12-08T02:24:24.411Z,88.97
2018-12-08T02:24:55.525Z,87.37
2018-12-08T02:25:26.754Z,85.28
2018-12-08T02:25:57.890Z,83.20
2018-12-08T02:26:29.028Z,81.67
2018-12-08T02:27:00.167Z,81.67
2018-12-08T02:27:31.317Z,80.87
2018-12-08T02:28:02.437Z,82.25
2018-12-08T02:28:33.553Z,82.62
2018-12-08T02:29:04.664Z,78.15
2018-12-08T02:29:35.772Z,75.15
2018-12-08T02:30:06.900Z,74.10
2018-12-08T02:30:38.013Z,69.22
2018-12-08T02:31:09.132Z,73.30
2018-12-08T02:31:40.235Z,72.42
2018-12-08T02:32:11.369Z,71.05
2018-12-08T02:32:42.526Z,74.22
2018-12-08T02:33:13.636Z,68.75
2018-12-08T02:33:44.764Z,65.47
2018-12-08T02:34:15.880Z,65.83
2018-12-08T02:34:46.989Z,67.08
2018-12-08T02:35:18.098Z,67.35
2018-12-08T02:35:49.218Z,66.42
2018-12-08T02:36:20.333Z,65.08
2018-12-08T02:36:51.441Z,65.05
2018-12-08T02:37:22.549Z,69.58
2018-12-08T02:37:53.717Z,65.87
2018-12-08T02:38:24.832Z,66.75
2018-12-08T02:38:55.964Z,68.45
2018-12-08T02:39:27.084Z,68.10
2018-12-08T02:39:58.207Z,71.07
2018-12-08T02:40:29.437Z,67.25
2018-12-08T02:41:00.592Z,69.62
2018-12-08T02:41:31.736Z,66.45
2018-12-08T02:42:02.852Z,69.65
2018-12-08T02:42:33.973Z,68.00
2018-12-08T02:43:05.180Z,71.05
2018-12-08T02:43:36.315Z,73.92
2018-12-08T02:44:07.468Z,70.47
2018-12-08T02:44:38.581Z,72.90
2018-12-08T02:45:09.716Z,72.85
2018-12-08T02:45:40.825Z,72.20
2018-12-08T02:46:11.944Z,71.92
2018-12-08T02:46:43.092Z,74.05
2018-12-08T02:47:14.220Z,74.37
2018-12-08T02:47:45.340Z,76.57
2018-12-08T02:48:16.524Z,75.00
2018-12-08T02:48:47.682Z,71.87
2018-12-08T02:49:18.789Z,67.30
2018-12-08T02:49:49.929Z,71.75
2018-12-08T02:50:21.039Z,72.37
2018-12-08T02:50:52.198Z,76.65
2018-12-08T02:51:23.344Z,74.35
2018-12-08T02:51:54.461Z,72.55
2018-12-08T02:52:25.570Z,70.15
2018-12-08T02:52:56.685Z,67.87
2018-12-08T02:53:27.810Z,70.57
2018-12-08T02:53:59.033Z,74.17
2018-12-08T02:54:30.320Z,76.45
2018-12-08T02:55:01.446Z,76.70
2018-12-08T02:55:32.565Z,73.83
2018-12-08T02:56:03.695Z,72.78
2018-12-08T02:56:34.814Z,70.83
2018-12-08T02:57:05.971Z,73.57
2018-12-08T02:57:37.086Z,72.58
2018-12-08T02:58:08.194Z,73.40
2018-12-08T02:58:39.306Z,72.40
2018-12-08T02:59:10.416Z,73.28
2018-12-08T02:59:41.537Z,75.30
2018-12-08T03:00:12.696Z,75.78
2018-12-08T03:00:43.813Z,76.80
2018-12-08T03:01:14.934Z,80.22
2018-12-08T03:01:46.050Z,83.82
2018-12-08T03:02:17.161Z,82.60
2018-12-08T03:02:48.281Z,84.70
2018-12-08T03:03:19.402Z,87.88
2018-12-08T03:03:50.522Z,88.00
2018-12-08T03:04:21.654Z,88.07
2018-12-08T03:04:52.775Z,89.95
2018-12-08T03:05:24.110Z,92.55
2018-12-08T03:05:55.266Z,90.40
2018-12-08T03:06:26.424Z,93.85
2018-12-08T03:06:57.536Z,93.07
2018-12-08T03:07:28.654Z,91.57
2018-12-08T03:07:59.801Z,96.25
2018-12-08T03:08:30.924Z,88.20
2018-12-08T03:09:02.045Z,90.85
2018-12-08T03:09:33.163Z,95.45
2018-12-08T03:10:04.272Z,91.17
2018-12-08T03:10:35.397Z,88.45
2018-12-08T03:11:06.495Z,91.20
2018-12-08T03:11:37.605Z,95.00
2018-12-08T03:12:08.751Z,92.57
2018-12-08T03:12:39.866Z,96.55
2018-12-08T03:13:10.968Z,93.27
2018-12-08T03:13:42.079Z,93.05
2018-12-08T03:14:13.236Z,92.12
2018-12-08T03:14:44.341Z,92.12
2018-12-08T03:15:15.459Z,92.30
2018-12-08T03:15:46.574Z,93.37
2018-12-08T03:16:17.681Z,91.87
2018-12-08T03:16:48.786Z,92.02
2018-12-08T03:17:19.887Z,92.20
2018-12-08T03:17:50.996Z,94.40
2018-12-08T03:18:22.139Z,95.40
2018-12-08T03:18:53.289Z,96.37
2018-12-08T03:19:24.397Z,95.00
2018-12-08T03:19:55.508Z,98.22
2018-12-08T03:20:26.623Z,98.17
2018-12-08T03:20:57.741Z,99.80
2018-12-08T03:21:28.849Z,97.10
2018-12-08T03:21:59.970Z,97.57
2018-12-08T03:22:31.145Z,96.63
2018-12-08T03:23:02.250Z,94.58
2018-12-08T03:23:33.366Z,99.67
2018-12-08T03:24:04.469Z,99.30
2018-12-08T03:24:35.582Z,99.15
2018-12-08T03:25:06.731Z,96.40
2018-12-08T03:25:37.852Z,98.80
2018-12-08T03:26:08.996Z,100.22
2018-12-08T03:26:40.145Z,102.50
2018-12-08T03:27:11.261Z,103.90
2018-12-08T03:27:42.376Z,103.42
2018-12-08T03:28:13.485Z,106.10
2018-12-08T03:28:44.595Z,104.38
2018-12-08T03:29:15.701Z,103.42
2018-12-08T03:29:46.937Z,105.83
2018-12-08T03:30:18.057Z,104.65
2018-12-08T03:30:49.172Z,106.37
2018-12-08T03:31:20.305Z,102.65
2018-12-08T03:31:51.482Z,104.17
2018-12-08T03:32:22.612Z,106.30
2018-12-08T03:32:53.742Z,105.25
2018-12-08T03:33:25.373Z,105.00
2018-12-08T03:33:56.482Z,105.30
2018-12-08T03:34:27.597Z,108.32
2018-12-08T03:34:58.722Z,106.27
2018-12-08T03:35:29.850Z,102.70
2018-12-08T03:36:00.957Z,104.03
2018-12-08T03:36:32.071Z,106.70
2018-12-08T03:37:03.215Z,102.50
2018-12-08T03:37:34.363Z,104.47
2018-12-08T03:38:05.473Z,102.90
2018-12-08T03:38:36.589Z,102.70
2018-12-08T03:39:07.707Z,107.12
2018-12-08T03:39:38.846Z,104.83
2018-12-08T03:40:09.973Z,109.07
2018-12-08T03:40:41.085Z,106.07
2018-12-08T03:41:12.198Z,106.92
2018-12-08T03:41:43.355Z,105.05
2018-12-08T03:42:14.463Z,109.20
2018-12-08T03:42:45.567Z,106.67
2018-12-08T03:43:16.699Z,110.20
2018-12-08T03:43:47.804Z,109.95
2018-12-08T03:44:18.915Z,107.27
2018-12-08T03:44:50.063Z,105.63
2018-12-08T03:45:21.177Z,105.92
2018-12-08T03:45:52.283Z,108.70
2018-12-08T03:46:23.397Z,103.78
2018-12-08T03:46:54.507Z,103.17
2018-12-08T03:47:25.632Z,101.22
2018-12-08T03:47:56.748Z,102.85
2018-12-08T03:48:27.873Z,102.95
2018-12-08T03:48:58.976Z,99.80
2018-12-08T03:49:30.089Z,101.50
2018-12-08T03:50:01.240Z,102.38
2018-12-08T03:50:32.364Z,98.05
2018-12-08T03:51:03.524Z,99.83
2018-12-08T03:51:34.637Z,100.90
2018-12-08T03:52:06.527Z,95.90
2018-12-08T03:52:37.636Z,93.07
2018-12-08T03:53:08.740Z,94.20
2018-12-08T03:53:39.858Z,94.77
2018-12-08T03:54:10.975Z,95.60
2018-12-08T03:54:42.097Z,95.07
2018-12-08T03:55:13.261Z,93.90
2018-12-08T03:55:45.019Z,95.72
2018-12-08T03:56:16.421Z,95.70
2018-12-08T03:56:47.541Z,94.97
2018-12-08T03:57:19.671Z,93.87
2018-12-08T03:57:50.795Z,93.70
2018-12-08T03:58:21.921Z,97.22
2018-12-08T03:58:53.043Z,95.22
2018-12-08T03:59:24.165Z,93.90
2018-12-08T03:59:55.276Z,95.38
2018-12-08T04:00:26.466Z,94.83
2018-12-08T04:00:57.583Z,95.85
2018-12-08T04:01:28.709Z,96.82
2018-12-08T04:01:59.830Z,95.90
2018-12-08T04:02:30.946Z,99.67
2018-12-08T04:03:02.094Z,96.75
2018-12-08T04:03:33.239Z,101.67
2018-12-08T04:04:04.351Z,97.85
2018-12-08T04:04:35.463Z,101.82
2018-12-08T04:05:06.583Z,97.53
2018-12-08T04:05:37.694Z,100.05
2018-12-08T04:06:08.806Z,96.72
2018-12-08T04:06:39.908Z,97.10
2018-12-08T04:07:11.027Z,95.05
2018-12-08T04:07:42.134Z,97.65
2018-12-08T04:08:13.272Z,97.12
2018-12-08T04:08:44.389Z,94.25
2018-12-08T04:09:15.498Z,97.08
2018-12-08T04:09:46.608Z,95.85
2018-12-08T04:10:17.725Z,96.67
2018-12-08T04:10:48.837Z,97.62
2018-12-08T04:11:20.042Z,98.67
2018-12-08T04:11:51.208Z,96.97
2018-12-08T04:12:22.335Z,93.92
2018-12-08T04:12:53.494Z,92.97
2018-12-08T04:13:24.602Z,93.67
2018-12-08T04:13:55.712Z,91.82
2018-12-08T04:14:26.832Z,89.45
2018-12-08T04:14:57.938Z,92.60
2018-12-08T04:15:29.108Z,94.92
2018-12-08T04:16:00.244Z,96.92
2018-12-08T04:16:31.353Z,93.80
2018-12-08T04:17:02.470Z,95.75
2018-12-08T04:17:33.577Z,94.00
2018-12-08T04:18:04.686Z,97.40
2018-12-08T04:18:35.797Z,97.33
2018-12-08T04:19:06.946Z,98.33
2018-12-08T04:19:38.072Z,97.37
2018-12-08T04:20:09.185Z,101.62
2018-12-08T04:20:40.325Z,97.27
2018-12-08T04:21:11.437Z,98.10
2018-12-08T04:21:42.574Z,96.50
2018-12-08T04:22:13.719Z,93.52
2018-12-08T04:22:44.833Z,97.05
2018-12-08T04:23:15.949Z,97.10
2018-12-08T04:23:47.053Z,95.62
2018-12-08T04:24:18.167Z,95.57
2018-12-08T04:24:49.274Z,92.75
2018-12-08T04:25:20.375Z,90.85
2018-12-08T04:25:51.517Z,90.38
2018-12-08T04:26:22.615Z,92.62
2018-12-08T04:26:53.723Z,89.90
2018-12-08T04:27:24.845Z,92.33
2018-12-08T04:27:55.996Z,91.37
2018-12-08T04:28:27.097Z,92.05
2018-12-08T04:28:58.203Z,91.50
2018-12-08T04:29:29.323Z,89.13
2018-12-08T04:30:00.434Z,90.15
2018-12-08T04:30:32.447Z,89.28
2018-12-08T04:31:03.670Z,90.55
2018-12-08T04:31:34.776Z,88.65
2018-12-08T04:32:05.902Z,91.85
2018-12-08T04:32:37.014Z,91.57
2018-12-08T04:33:08.123Z,88.92
2018-12-08T04:33:39.275Z,91.57
2018-12-08T04:34:10.388Z,87.78
2018-12-08T04:34:41.503Z,84.87
2018-12-08T04:35:12.623Z,86.32
2018-12-08T04:35:43.742Z,84.97
2018-12-08T04:36:14.863Z,84.28
2018-12-08T04:36:46.000Z,82.57
2018-12-08T04:37:17.107Z,78.52
2018-12-08T04:37:48.221Z,81.60
2018-12-08T04:38:19.334Z,84.95
2018-12-08T04:38:50.452Z,85.70
2018-12-08T04:39:21.571Z,84.45
2018-12-08T04:39:52.690Z,81.92
2018-12-08T04:40:23.802Z,83.20
2018-12-08T04:40:54.912Z,83.87
2018-12-08T04:41:26.024Z,83.03
2018-12-08T04:41:57.171Z,78.97
2018-12-08T04:42:28.279Z,79.47
2018-12-08T04:42:59.386Z,79.80
2018-12-08T04:43:30.492Z,79.60
2018-12-08T04:44:01.611Z,79.50
2018-12-08T04:44:32.730Z,77.97
2018-12-08T04:45:03.872Z,77.50
2018-12-08T04:45:35.207Z,78.05
2018-12-08T04:46:06.323Z,77.45
2018-12-08T04:46:37.438Z,78.83
2018-12-08T04:47:08.600Z,75.92
2018-12-08T04:47:39.701Z,76.55
2018-12-08T04:48:11.911Z,81.50
2018-12-08T04:48:43.021Z,75.92
2018-12-08T04:49:14.121Z,76.20
2018-12-08T04:49:45.225Z,77.03
2018-12-08T04:50:16.330Z,77.75
2018-12-08T04:50:47.437Z,75.97
2018-12-08T04:51:18.548Z,77.30
2018-12-08T04:51:49.656Z,77.70
2018-12-08T04:52:23.833Z,79.50
2018-12-08T04:52:54.994Z,79.72
2018-12-08T04:53:26.118Z,77.25
2018-12-08T04:53:57.241Z,76.45
2018-12-08T04:54:28.488Z,75.92
2018-12-08T04:54:59.618Z,76.10
2018-12-08T04:55:30.729Z,78.15
2018-12-08T04:56:01.880Z,77.27
2018-12-08T04:56:33.030Z,79.17
2018-12-08T04:57:04.182Z,80.65
2018-12-08T04:57:35.327Z,86.92
2018-12-08T04:58:06.436Z,81.20
2018-12-08T04:58:37.626Z,83.47
2018-12-08T04:59:08.785Z,80.77
2018-12-08T04:59:39.893Z,83.05
2018-12-08T05:00:11.002Z,85.25
2018-12-08T05:00:42.112Z,82.65
2018-12-08T05:01:13.216Z,83.72
2018-12-08T05:01:44.319Z,86.08
2018-12-08T05:02:15.455Z,82.65
2018-12-08T05:02:46.569Z,83.45
2018-12-08T05:03:17.683Z,80.55
2018-12-08T05:03:48.796Z,80.60
2018-12-08T05:04:19.950Z,79.03
2018-12-08T05:04:51.070Z,79.67
2018-12-08T05:05:22.193Z,79.70
2018-12-08T05:05:53.303Z,78.40
2018-12-08T05:06:24.410Z,80.97
2018-12-08T05:06:55.566Z,79.55
2018-12-08T05:07:26.678Z,80.35
2018-12-08T05:07:57.789Z,79.37
2018-12-08T05:08:28.903Z,79.45
2018-12-08T05:09:00.003Z,79.92
2018-12-08T05:09:31.099Z,78.10
2018-12-08T05:10:02.213Z,73.12
2018-12-08T05:10:33.334Z,78.72
2018-12-08T05:11:04.440Z,77.42
2018-12-08T05:11:35.545Z,74.82
2018-12-08T05:12:06.692Z,73.65
2018-12-08T05:12:37.804Z,75.95
2018-12-08T05:13:08.905Z,77.15
2018-12-08T05:13:40.017Z,75.57
2018-12-08T05:14:11.118Z,73.17
2018-12-08T05:14:42.229Z,75.05
2018-12-08T05:15:14.342Z,73.90
2018-12-08T05:15:45.448Z,75.32
2018-12-08T05:16:16.550Z,72.65
2018-12-08T05:16:47.660Z,72.62
2018-12-08T05:17:18.799Z,73.92
2018-12-08T05:17:49.908Z,72.62
2018-12-08T05:18:21.007Z,73.83
2018-12-08T05:18:52.117Z,75.10
2018-12-08T05:19:23.226Z,73.92
2018-12-08T05:19:54.359Z,73.78
2018-12-08T05:20:25.457Z,76.15
2018-12-08T05:20:56.607Z,74.47
2018-12-08T05:21:27.711Z,72.30
2018-12-08T05:21:58.822Z,75.78
2018-12-08T05:22:29.918Z,76.75
2018-12-08T05:23:01.024Z,78.05
2018-12-08T05:23:32.146Z,75.62
2018-12-08T05:24:03.260Z,78.12
2018-12-08T05:24:34.379Z,75.32
2018-12-08T05:25:05.503Z,76.87
2018-12-08T05:25:36.608Z,74.15
2018-12-08T05:26:07.744Z,74.45
2018-12-08T05:26:38.858Z,75.45
2018-12-08T05:27:09.956Z,76.02
2018-12-08T05:27:41.065Z,74.58
2018-12-08T05:28:12.185Z,74.58
2018-12-08T05:28:43.317Z,78.65
2018-12-08T05:29:14.438Z,76.70
2018-12-08T05:29:45.576Z,74.65
2018-12-08T05:30:16.710Z,75.03
2018-12-08T05:30:47.834Z,74.12
2018-12-08T05:31:18.950Z,74.75
2018-12-08T05:31:50.070Z,75.62
2018-12-08T05:32:21.201Z,74.85
2018-12-08T05:32:52.316Z,75.37
2018-12-08T05:33:23.428Z,71.60
2018-12-08T05:33:54.535Z,71.00
2018-12-08T05:34:25.646Z,71.57
2018-12-08T05:34:56.796Z,70.20
2018-12-08T05:35:27.913Z,71.17
2018-12-08T05:35:59.033Z,70.83
2018-12-08T05:36:30.143Z,68.37
2018-12-08T05:37:01.290Z,70.80
2018-12-08T05:37:32.414Z,68.83
2018-12-08T05:38:03.533Z,67.45
2018-12-08T05:38:34.635Z,68.35
2018-12-08T05:39:05.757Z,69.90
2018-12-08T05:39:36.867Z,67.30
2018-12-08T05:40:14.654Z,68.45
2018-12-08T05:40:45.830Z,70.97
2018-12-08T05:41:17.026Z,69.25
2018-12-08T05:41:48.197Z,71.40
2018-12-08T05:42:19.333Z,72.90
2018-12-08T05:42:50.786Z,74.07
2018-12-08T05:43:21.945Z,72.08
2018-12-08T05:43:53.099Z,72.75
2018-12-08T05:44:24.204Z,77.85
2018-12-08T05:44:55.312Z,76.67
2018-12-08T05:45:26.424Z,77.17
2018-12-08T05:45:57.576Z,74.55
2018-12-08T05:46:28.694Z,72.08
2018-12-08T05:46:59.809Z,76.90
2018-12-08T05:47:30.916Z,76.17
2018-12-08T05:48:02.044Z,77.22
2018-12-08T05:48:33.151Z,74.47
2018-12-08T05:49:04.262Z,73.00
2018-12-08T05:49:35.386Z,71.50
2018-12-08T05:50:06.502Z,72.30
2018-12-08T05:50:37.639Z,71.92
2018-12-08T05:51:09.061Z,72.90
2018-12-08T05:51:40.184Z,73.83
2018-12-08T05:52:11.434Z,74.58
2018-12-08T05:52:42.619Z,74.85
2018-12-08T05:53:13.742Z,74.17
2018-12-08T05:53:44.850Z,77.12
2018-12-08T05:54:16.465Z,76.02
2018-12-08T05:54:47.573Z,74.47
2018-12-08T05:55:18.685Z,72.72
2018-12-08T05:55:49.800Z,75.15
2018-12-08T05:56:20.911Z,75.65
2018-12-08T05:56:52.026Z,73.65
2018-12-08T05:57:23.149Z,73.52
2018-12-08T05:57:54.297Z,73.25
2018-12-08T05:58:25.402Z,75.17
2018-12-08T05:58:56.511Z,74.32
2018-12-08T05:59:27.615Z,73.62
2018-12-08T05:59:58.767Z,72.32
2018-12-08T06:00:29.894Z,75.55
2018-12-08T06:01:00.996Z,73.40
2018-12-08T06:01:32.099Z,73.47
2018-12-08T06:02:03.215Z,73.25
2018-12-08T06:02:34.326Z,72.70
2018-12-08T06:03:05.475Z,73.17
2018-12-08T06:03:36.595Z,71.22
2018-12-08T06:04:07.704Z,71.72
2018-12-08T06:04:38.830Z,71.65
2018-12-08T06:05:10.118Z,72.32
2018-12-08T06:05:41.234Z,72.70
2018-12-08T06:06:12.359Z,70.80
2018-12-08T06:06:43.529Z,72.67
2018-12-08T06:07:14.656Z,71.57
2018-12-08T06:07:45.895Z,72.25
2018-12-08T06:08:17.032Z,69.35
2018-12-08T06:08:48.146Z,71.62
2018-12-08T06:09:19.253Z,72.05
2018-12-08T06:09:50.363Z,71.20
2018-12-08T06:10:21.474Z,68.92
2018-12-08T06:10:52.617Z,72.92
2018-12-08T06:11:23.785Z,73.00
2018-12-08T06:11:54.885Z,71.55
2018-12-08T06:12:26.013Z,70.47
2018-12-08T06:12:57.124Z,68.52
2018-12-08T06:13:28.238Z,68.10
2018-12-08T06:13:59.353Z,68.42
2018-12-08T06:14:30.459Z,61.80
2018-12-08T06:15:01.570Z,65.52
2018-12-08T06:15:32.668Z,67.65
2018-12-08T06:16:03.814Z,66.47
2018-12-08T06:16:34.932Z,63.05
2018-12-08T06:17:06.041Z,59.40
2018-12-08T06:17:37.157Z,61.50
2018-12-08T06:18:08.267Z,62.65
2018-12-08T06:18:39.418Z,62.13
2018-12-08T06:19:10.538Z,62.55
2018-12-08T06:19:41.644Z,58.28
2018-12-08T06:20:12.747Z,58.68
2018-12-08T06:20:43.864Z,59.73
2018-12-08T06:21:15.013Z,57.43
2018-12-08T06:21:46.178Z,55.65
2018-12-08T06:22:17.308Z,57.50
2018-12-08T06:22:48.455Z,54.20
2018-12-08T06:23:56.918Z,56.40
2018-12-08T06:24:28.035Z,55.88
2018-12-08T06:24:59.186Z,56.75
2018-12-08T06:25:30.298Z,55.70
2018-12-08T06:26:01.414Z,56.75
2018-12-08T06:26:32.537Z,56.05
2018-12-08T06:27:03.708Z,55.43
2018-12-08T06:27:34.833Z,55.73
2018-12-08T06:28:05.965Z,55.40
2018-12-08T06:28:38.894Z,55.88
2018-12-08T06:29:10.255Z,54.95
2018-12-08T06:29:41.397Z,55.63
2018-12-08T06:30:12.510Z,54.88
2018-12-08T06:30:43.657Z,56.60
2018-12-08T06:31:14.909Z,55.38
2018-12-08T06:31:46.029Z,56.68
2018-12-08T06:32:17.161Z,54.63
2018-12-08T06:32:48.345Z,55.88
2018-12-08T06:33:19.454Z,56.08
2018-12-08T06:33:50.743Z,56.20
2018-12-08T06:34:22.436Z,56.42
2018-12-08T06:34:53.562Z,55.67
2018-12-08T06:35:24.745Z,53.87
2018-12-08T06:35:55.936Z,53.75
2018-12-08T06:36:27.053Z,55.83
2018-12-08T06:36:58.168Z,53.35
2018-12-08T06:37:29.281Z,54.98
2018-12-08T06:38:00.393Z,53.92
2018-12-08T06:38:31.504Z,54.88
2018-12-08T06:39:02.622Z,54.88
2018-12-08T06:39:33.764Z,55.25
2018-12-08T06:40:04.881Z,56.05
2018-12-08T06:40:36.008Z,55.75
2018-12-08T06:41:07.126Z,55.75